Airfield :
LOGIN :

Register | Disclaimer

   EN    FR    IT 

 










Legend :    VFR   Marginal VFR   IFR   Intensive IFR   Very Intensive IFR
Visi :
Ceiling :
>= 8 km
>= 3000ft
5 to 8 km
1000 to 3000 ft
1500m to 5 km
500 to 1000 ft
800 to 1500m
200 to 500 ft
< 800m
< 200 ft
Symbols :   Thunderstorms  Fog  Heavy snow  Heavy precipitations  Wind > 20 kt
SIGMETs :     Misc.  Thunderstorms  Icing  Turbulence  Mountain Waves  Volcanic Ashes






- Airport Elevation : 102 ft
- IATA code : EXT


EGTE - Exeter

CURRENT METAR :
  • 271650Z 31012KT 260V330 9999 FEW035 08/01 Q1011

EXPIRED METARs :
  • 271620Z 30012KT 9999 FEW040 07/01 Q1011
  • 271550Z 30014KT 260V320 9999 FEW040 09/02 Q1010
  • 271520Z 31014G25KT 9999 FEW040 09/00 Q1010
  • 271450Z 30019KT 9999 FEW038 09/01 Q1009
  • 271420Z 28019KT 9999 FEW038 08/M00 Q1008

TAF TAF EGTE
Valid from the 27 at 15:00 until the 28 at 00:00 UTC


271358Z 2715/2724 33016G26KT 9999 SCT020
BECMG 2715/2717 32013KT



MET'MAP, your aeronautical weather chart ! - Copyright ORBIFLY December 2007 - Disclaimer

ORBIFLY MET'MAP TEAM :

Programming & Development : Alexandra Zaïnal
Concept & original design : Baudouin d'Aumeries
Assistance for programming : Marc-Olivier Méhu
Technical & hardware support : Manuel Goepfert

Contact : metmap@orbifly.com




SOURCES & CREDITS :

   NOAA